Time;durP1;ratioP1;P1;durP2;ratioP2;P2;SDS_P1;SDS_P2;PMS_P1;PMS_P2;Temp;Humidity;BMP_temperature;BMP_pressure;BME280_temperature;BME280_humidity;BME280_pressure;Samples;Min_cycle;Max_cycle;Signal;HPM_P1;HPM_P2
2023/10/13 00:01:11;;;;;;;10.13;8.95;;;18.80;99.90;;;;;;5099930;27;20217;-72
2023/10/13 00:03:39;;;;;;;11.10;9.05;;;18.80;99.90;;;;;;5101084;27;20849;-72
2023/10/13 00:06:08;;;;;;;10.60;8.85;;;18.80;99.90;;;;;;5097934;27;20200;-72
2023/10/13 00:08:38;;;;;;;12.88;10.23;;;18.80;99.90;;;;;;5102547;27;20205;-70
2023/10/13 00:11:05;;;;;;;12.32;8.88;;;18.70;99.90;;;;;;5096583;27;20694;-72
2023/10/13 00:13:42;;;;;;;11.15;8.40;;;18.70;99.90;;;;;;5100951;27;20201;-71
2023/10/13 00:16:16;;;;;;;12.43;8.93;;;18.60;99.90;;;;;;5095293;27;20220;-71
2023/10/13 00:18:44;;;;;;;10.25;9.25;;;18.60;99.90;;;;;;5096965;27;20223;-71
2023/10/13 00:21:19;;;;;;;9.45;8.55;;;18.60;99.90;;;;;;5095771;27;20221;-71
2023/10/13 00:23:53;;;;;;;9.43;8.43;;;18.50;99.90;;;;;;5100852;27;20577;-71
2023/10/13 00:26:24;;;;;;;9.02;7.82;;;18.50;99.90;;;;;;5096357;28;20295;-72
2023/10/13 00:28:58;;;;;;;9.57;7.88;;;18.40;99.90;;;;;;5103848;27;20282;-72
2023/10/13 00:31:31;;;;;;;9.23;8.30;;;18.50;99.90;;;;;;5096116;27;20216;-72
2023/10/13 00:34:03;;;;;;;9.70;7.63;;;18.50;99.90;;;;;;5100182;27;20197;-72
2023/10/13 00:36:34;;;;;;;9.40;8.40;;;18.50;99.90;;;;;;5093069;27;20216;-71
2023/10/13 00:39:03;;;;;;;9.10;7.97;;;18.50;99.90;;;;;;5097904;27;20205;-71
2023/10/13 00:41:50;;;;;;;11.10;8.43;;;18.60;99.90;;;;;;5092679;28;20216;-72
2023/10/13 00:44:16;;;;;;;10.82;8.20;;;18.50;99.90;;;;;;5097881;28;20213;-73
2023/10/13 00:46:45;;;;;;;9.82;7.70;;;18.60;99.90;;;;;;5099842;28;20198;-72
2023/10/13 00:49:15;;;;;;;11.15;8.80;;;18.50;99.90;;;;;;5096602;28;20193;-72
2023/10/13 00:51:47;;;;;;;10.68;9.23;;;18.50;99.90;;;;;;5095178;28;20280;-72
2023/10/13 00:54:16;;;;;;;11.25;9.13;;;18.50;99.90;;;;;;5098878;27;20600;-71
2023/10/13 00:56:47;;;;;;;8.95;8.05;;;18.50;99.90;;;;;;5094796;27;20224;-71
2023/10/13 00:59:14;;;;;;;8.63;7.72;;;18.40;99.90;;;;;;5095568;28;20203;-71
2023/10/13 01:01:43;;;;;;;9.68;8.70;;;18.50;99.90;;;;;;5097221;28;20210;-72
2023/10/13 01:04:13;;;;;;;9.70;8.65;;;18.50;99.90;;;;;;5098457;27;20200;-71
2023/10/13 01:06:39;;;;;;;10.35;8.45;;;18.50;99.90;;;;;;5092059;28;20296;-71
2023/10/13 01:09:13;;;;;;;9.35;8.35;;;18.50;99.90;;;;;;5095563;28;20197;-72
2023/10/13 01:11:40;;;;;;;9.55;8.35;;;18.40;99.90;;;;;;5097221;28;20765;-72
2023/10/13 01:14:07;;;;;;;14.45;11.50;;;18.40;99.90;;;;;;5094167;28;20642;-71
2023/10/13 01:16:33;;;;;;;12.07;9.75;;;18.20;99.90;;;;;;5092320;28;20702;-71
2023/10/13 01:19:04;;;;;;;8.90;8.00;;;18.20;99.90;;;;;;5098266;27;20222;-71
2023/10/13 01:21:33;;;;;;;9.05;8.18;;;18.20;99.90;;;;;;5095401;27;20722;-71
2023/10/13 01:24:01;;;;;;;11.23;8.43;;;18.20;99.90;;;;;;5100952;28;20220;-72
2023/10/13 01:26:28;;;;;;;10.45;8.90;;;18.30;99.90;;;;;;5098656;28;20258;-71
2023/10/13 01:28:58;;;;;;;10.52;9.43;;;18.30;99.90;;;;;;5097208;28;20208;-71
2023/10/13 01:31:33;;;;;;;10.68;9.32;;;18.30;99.90;;;;;;5098020;28;20213;-72
2023/10/13 01:33:59;;;;;;;10.65;8.63;;;18.30;99.90;;;;;;5099539;28;20638;-71
2023/10/13 01:36:27;;;;;;;9.18;8.27;;;18.40;99.90;;;;;;5093824;27;20196;-71
2023/10/13 01:38:54;;;;;;;9.70;8.40;;;18.40;99.90;;;;;;5099184;27;20212;-71
2023/10/13 01:41:23;;;;;;;8.73;7.60;;;18.30;99.90;;;;;;5099110;28;20681;-72
2023/10/13 01:43:49;;;;;;;8.07;7.28;;;18.30;99.90;;;;;;5100214;27;20292;-72
2023/10/13 01:46:19;;;;;;;9.65;7.95;;;18.20;99.90;;;;;;5102548;28;20265;-72
2023/10/13 01:48:46;;;;;;;8.65;7.57;;;18.30;99.90;;;;;;5119559;27;20224;-71
2023/10/13 01:51:13;;;;;;;10.15;7.30;;;18.30;99.90;;;;;;5094399;28;20745;-71
2023/10/13 01:53:41;;;;;;;8.48;7.68;;;18.30;99.90;;;;;;5097866;27;20212;-72
2023/10/13 01:56:11;;;;;;;8.93;7.68;;;18.30;99.90;;;;;;5096999;27;20288;-71
2023/10/13 01:58:42;;;;;;;9.35;7.90;;;18.30;99.90;;;;;;5100270;27;20229;-72
2023/10/13 02:01:10;;;;;;;11.50;8.15;;;18.30;99.90;;;;;;5087690;28;20225;-71
2023/10/13 02:03:41;;;;;;;9.48;7.82;;;18.30;99.90;;;;;;5096421;27;20263;-71
2023/10/13 02:06:10;;;;;;;9.15;8.10;;;18.30;99.90;;;;;;5089485;28;20193;-71
2023/10/13 02:08:40;;;;;;;8.90;7.90;;;18.30;99.90;;;;;;5098563;28;20233;-71
2023/10/13 02:11:08;;;;;;;9.05;7.95;;;18.30;99.90;;;;;;5097549;28;20930;-72
2023/10/13 02:13:41;;;;;;;8.25;7.45;;;18.30;99.90;;;;;;5093371;27;20727;-71
2023/10/13 02:16:11;;;;;;;9.15;8.25;;;18.30;99.90;;;;;;5096978;28;20192;-71
2023/10/13 02:18:41;;;;;;;8.50;7.70;;;18.30;99.90;;;;;;5094680;28;20208;-72
2023/10/13 02:21:12;;;;;;;10.40;8.25;;;18.30;99.90;;;;;;5095190;28;20982;-72
2023/10/13 02:23:43;;;;;;;13.90;8.88;;;18.30;99.90;;;;;;5091407;28;20208;-71
2023/10/13 02:26:14;;;;;;;8.50;7.70;;;18.30;99.90;;;;;;5093602;28;20609;-71
2023/10/13 02:28:40;;;;;;;8.07;7.28;;;18.20;99.90;;;;;;5097796;28;20228;-71
2023/10/13 02:31:08;;;;;;;8.80;7.55;;;18.20;99.90;;;;;;5093291;28;20220;-71
2023/10/13 02:33:36;;;;;;;10.30;7.05;;;18.30;99.90;;;;;;5089548;28;20201;-71
2023/10/13 02:36:05;;;;;;;11.52;7.35;;;18.30;99.90;;;;;;5095122;28;20215;-71
2023/10/13 02:38:34;;;;;;;8.68;6.88;;;18.30;99.90;;;;;;5093581;28;20321;-71
2023/10/13 02:41:06;;;;;;;8.75;7.00;;;18.30;99.90;;;;;;5090694;28;20220;-71
2023/10/13 02:43:34;;;;;;;8.07;7.25;;;18.30;99.90;;;;;;5093186;28;20289;-71
2023/10/13 02:46:01;;;;;;;9.90;7.45;;;18.20;99.90;;;;;;5095945;28;20200;-70
2023/10/13 02:48:38;;;;;;;7.60;6.50;;;18.20;99.90;;;;;;5094000;28;20205;-71
2023/10/13 02:51:15;;;;;;;7.97;7.18;;;18.20;99.90;;;;;;5093978;28;20205;-72
2023/10/13 02:53:41;;;;;;;8.60;7.68;;;18.20;99.90;;;;;;5098154;28;20287;-70
2023/10/13 02:56:08;;;;;;;9.93;6.95;;;18.30;99.90;;;;;;5093619;28;20216;-72
2023/10/13 02:58:45;;;;;;;8.23;6.88;;;18.20;99.90;;;;;;5097929;28;20209;-72
2023/10/13 03:01:18;;;;;;;7.40;6.60;;;18.30;99.90;;;;;;5096801;27;20217;-71
2023/10/13 03:03:50;;;;;;;8.60;7.35;;;18.30;99.90;;;;;;5102876;27;20209;-71
2023/10/13 03:06:21;;;;;;;7.97;7.18;;;18.30;99.90;;;;;;5097581;27;20213;-71
2023/10/13 03:08:48;;;;;;;7.90;7.00;;;18.30;99.90;;;;;;5103153;27;20203;-72
2023/10/13 03:11:14;;;;;;;7.80;7.05;;;18.20;99.90;;;;;;5096935;27;20282;-71
2023/10/13 03:13:44;;;;;;;7.85;6.88;;;18.20;99.90;;;;;;5102700;27;20199;-72
2023/10/13 03:16:15;;;;;;;8.30;7.00;;;18.20;99.90;;;;;;5117035;28;20193;-73
2023/10/13 03:18:51;;;;;;;9.13;7.90;;;18.20;99.90;;;;;;5128867;27;20192;-72
2023/10/13 03:21:28;;;;;;;9.13;7.03;;;18.20;99.90;;;;;;5119405;27;20239;-71
2023/10/13 03:23:56;;;;;;;8.18;7.38;;;18.20;99.90;;;;;;5100471;27;20311;-71
2023/10/13 03:26:23;;;;;;;9.38;6.72;;;18.00;99.90;;;;;;5098918;27;20915;-72
2023/10/13 03:28:52;;;;;;;13.10;7.88;;;17.90;99.90;;;;;;5103270;27;20247;-71
2023/10/13 03:31:26;;;;;;;7.65;6.90;;;17.70;99.90;;;;;;5095377;28;20350;-71
2023/10/13 03:33:58;;;;;;;6.35;5.75;;;17.60;99.90;;;;;;5099886;27;20201;-72
2023/10/13 03:39:14;;;;;;;6.68;6.07;;;17.70;99.90;;;;;;5093365;28;20785;-72
2023/10/13 03:41:41;;;;;;;5.78;5.28;;;17.80;99.90;;;;;;5097826;28;20305;-72
2023/10/13 03:44:14;;;;;;;7.22;5.75;;;17.90;99.90;;;;;;5099011;28;20204;-71
2023/10/13 03:46:42;;;;;;;6.70;5.57;;;18.00;99.90;;;;;;5096376;28;20224;-71
2023/10/13 03:49:12;;;;;;;7.35;5.95;;;18.00;99.90;;;;;;5119015;27;20269;-72
2023/10/13 03:51:43;;;;;;;7.18;6.20;;;18.00;99.90;;;;;;5113797;28;20226;-72
2023/10/13 03:54:10;;;;;;;7.70;6.10;;;18.00;99.90;;;;;;5098640;28;20201;-71
2023/10/13 03:56:39;;;;;;;8.02;6.15;;;17.90;99.90;;;;;;5097958;28;20262;-74
2023/10/13 03:59:09;;;;;;;7.22;6.15;;;17.90;99.90;;;;;;5099699;27;20205;-73
2023/10/13 04:01:46;;;;;;;6.55;5.95;;;17.90;99.90;;;;;;5092995;27;20239;-72
2023/10/13 04:04:14;;;;;;;6.35;5.65;;;17.90;99.90;;;;;;5100649;27;20200;-71
2023/10/13 04:06:54;;;;;;;6.63;5.90;;;17.90;99.90;;;;;;5099337;27;20200;-72
2023/10/13 04:13:49;;;;;;;7.28;5.95;;;18.00;99.90;;;;;;5102597;28;20720;-72
2023/10/13 04:15:18;;;;;;;6.53;5.93;;;18.00;99.90;;;;;;5096595;27;20211;-71
2023/10/13 04:17:46;;;;;;;7.22;6.53;;;17.90;99.90;;;;;;5100741;27;20197;-72
2023/10/13 04:20:26;;;;;;;7.65;6.00;;;17.90;99.90;;;;;;5102863;27;20698;-72
2023/10/13 04:26:05;;;;;;;6.43;5.82;;;17.90;99.90;;;;;;5097763;27;20207;-72
2023/10/13 04:28:34;;;;;;;6.68;6.00;;;17.90;99.90;;;;;;5103372;27;20198;-72
2023/10/13 04:31:11;;;;;;;7.70;6.22;;;17.90;99.90;;;;;;5100532;27;20205;-73
2023/10/13 04:33:50;;;;;;;9.80;7.10;;;17.90;99.90;;;;;;5103995;27;20209;-72
2023/10/13 04:36:36;;;;;;;8.75;6.95;;;17.80;99.90;;;;;;5099723;27;20273;-71
2023/10/13 04:39:09;;;;;;;7.85;6.28;;;17.80;99.90;;;;;;5100757;27;20253;-72
2023/10/13 04:41:39;;;;;;;6.85;6.15;;;17.80;99.90;;;;;;5100677;27;20213;-73
2023/10/13 04:44:23;;;;;;;7.50;6.80;;;17.80;99.90;;;;;;5098828;27;20659;-72
2023/10/13 04:47:08;;;;;;;7.32;6.63;;;17.70;99.90;;;;;;5102738;27;20197;-72
2023/10/13 04:49:49;;;;;;;7.45;6.75;;;17.70;99.90;;;;;;5095380;28;20202;-72
2023/10/13 04:52:38;;;;;;;7.78;6.32;;;17.70;99.90;;;;;;5102268;27;20204;-71
2023/10/13 04:55:43;;;;;;;7.72;6.88;;;17.70;99.90;;;;;;5102567;27;20227;-72
2023/10/13 04:58:14;;;;;;;7.60;6.13;;;17.70;99.90;;;;;;5099239;27;20196;-72
2023/10/13 05:01:17;;;;;;;6.53;5.90;;;17.60;99.90;;;;;;5100927;27;20216;-72
2023/10/13 05:04:21;;;;;;;9.02;7.20;;;17.60;99.90;;;;;;5103718;27;20649;-72
2023/10/13 05:45:36;;;;;;;7.18;6.47;;;17.40;99.90;;;;;;5098386;28;20304;-72
2023/10/13 05:48:11;;;;;;;8.60;6.55;;;17.40;99.90;;;;;;5100252;27;20249;-72
2023/10/13 05:51:32;;;;;;;8.52;6.65;;;17.40;99.90;;;;;;5111054;27;20240;-73
2023/10/13 06:29:36;;;;;;;7.75;6.03;;;18.50;99.90;;;;;;5095287;28;20833;-75
2023/10/13 06:32:10;;;;;;;5.85;5.35;;;18.40;99.90;;;;;;5097192;28;20288;-73
2023/10/13 06:34:42;;;;;;;7.45;6.10;;;18.30;99.90;;;;;;5095046;27;20233;-73
2023/10/13 06:37:22;;;;;;;8.45;5.72;;;18.20;99.90;;;;;;5093723;27;20219;-70
2023/10/13 06:39:49;;;;;;;6.88;5.78;;;18.00;99.90;;;;;;5095603;27;20236;-71
2023/10/13 06:42:16;;;;;;;7.53;6.10;;;17.80;99.90;;;;;;5094049;27;20340;-71
2023/10/13 06:44:46;;;;;;;6.90;5.80;;;17.60;99.90;;;;;;5089501;27;20196;-70
2023/10/13 06:47:13;;;;;;;7.82;6.13;;;17.50;99.90;;;;;;5099824;27;20200;-71
2023/10/13 06:49:43;;;;;;;6.53;5.20;;;17.40;99.90;;;;;;5096780;27;20300;-70
2023/10/13 06:52:10;;;;;;;8.32;5.80;;;17.30;99.90;;;;;;5117472;28;20341;-82
2023/10/13 06:54:38;;;;;;;7.20;5.45;;;17.30;99.90;;;;;;5123401;28;20197;-72
2023/10/13 06:57:06;;;;;;;7.00;6.05;;;17.30;99.90;;;;;;5079306;28;20221;-71
2023/10/13 06:59:34;;;;;;;7.60;5.68;;;17.30;99.90;;;;;;5054507;28;20204;-72
2023/10/13 07:02:05;;;;;;;6.07;5.47;;;17.30;99.90;;;;;;5053859;28;20537;-70
2023/10/13 07:04:32;;;;;;;8.70;6.35;;;17.40;99.90;;;;;;5050233;28;20268;-71
2023/10/13 07:07:01;;;;;;;7.38;5.65;;;17.60;99.90;;;;;;5056967;28;20233;-71
2023/10/13 07:09:40;;;;;;;7.63;5.97;;;17.70;99.90;;;;;;5054109;28;20197;-70
2023/10/13 07:12:16;;;;;;;6.85;5.50;;;17.70;99.90;;;;;;5052210;28;20758;-70
2023/10/13 07:14:51;;;;;;;6.78;5.50;;;17.80;99.90;;;;;;5048525;28;20401;-71
2023/10/13 07:17:23;;;;;;;7.43;5.47;;;17.90;99.90;;;;;;5058535;28;20288;-69
2023/10/13 07:19:54;;;;;;;8.25;5.78;;;18.00;99.90;;;;;;5054518;28;20297;-71
2023/10/13 07:22:23;;;;;;;7.57;5.78;;;18.00;99.90;;;;;;5051061;28;20214;-71
2023/10/13 07:24:52;;;;;;;9.68;6.18;;;18.00;99.90;;;;;;5053284;28;20277;-71
2023/10/13 07:27:24;;;;;;;8.30;5.78;;;18.00;99.90;;;;;;5053946;28;20214;-70
2023/10/13 07:29:56;;;;;;;7.82;5.95;;;18.10;99.90;;;;;;5054546;28;20323;-70
2023/10/13 07:32:25;;;;;;;7.78;5.50;;;18.20;99.90;;;;;;5054156;28;20744;-73
2023/10/13 07:34:56;;;;;;;7.60;6.00;;;18.40;99.90;;;;;;5054467;28;20201;-70
2023/10/13 07:37:28;;;;;;;10.60;5.70;;;18.60;99.90;;;;;;5051493;28;20262;-71
2023/10/13 07:39:58;;;;;;;7.82;5.38;;;19.10;99.90;;;;;;5056068;28;20232;-70
2023/10/13 07:42:31;;;;;;;9.50;5.55;;;19.80;99.90;;;;;;5053488;28;20215;-70
2023/10/13 07:44:58;;;;;;;8.77;5.78;;;20.60;99.90;;;;;;5052897;28;20404;-71
2023/10/13 07:47:27;;;;;;;6.30;5.57;;;21.20;99.90;;;;;;5056715;28;20231;-70
2023/10/13 07:49:56;;;;;;;9.95;6.50;;;21.50;99.90;;;;;;5053921;28;20320;-71
2023/10/13 07:52:36;;;;;;;9.70;6.00;;;21.70;99.90;;;;;;5056989;28;20195;-72
2023/10/13 07:55:12;;;;;;;9.25;6.45;;;21.90;99.90;;;;;;5082936;28;20187;-71
2023/10/13 07:57:53;;;;;;;7.95;5.50;;;22.00;99.90;;;;;;5054597;28;20198;-70
2023/10/13 08:00:29;;;;;;;9.40;5.57;;;22.00;99.90;;;;;;5059929;28;20728;-72
2023/10/13 08:03:09;;;;;;;12.20;6.10;;;22.10;99.90;;;;;;5056268;28;20206;-71
2023/10/13 08:05:55;;;;;;;9.50;5.53;;;22.30;99.90;;;;;;5052761;28;20198;-70
2023/10/13 08:08:25;;;;;;;7.35;5.30;;;22.30;99.90;;;;;;5059394;28;20221;-71
2023/10/13 08:10:55;;;;;;;9.05;5.22;;;22.50;99.90;;;;;;5055771;28;20221;-70
2023/10/13 08:13:23;;;;;;;10.15;5.47;;;22.70;99.90;;;;;;5054045;28;20581;-71
2023/10/13 08:15:52;;;;;;;8.25;5.10;;;22.80;99.90;;;;;;5054419;28;20265;-70
2023/10/13 08:18:29;;;;;;;8.98;5.43;;;23.00;99.90;;;;;;5058987;28;20318;-71
2023/10/13 08:21:02;;;;;;;8.63;5.30;;;23.00;99.90;;;;;;5054698;28;20648;-71
2023/10/13 08:26:31;;;;;;;7.75;4.90;;;22.90;99.90;;;;;;5050573;28;20203;-71
2023/10/13 08:29:49;;;;;;;7.72;5.72;;;23.10;99.90;;;;;;5054888;28;20341;-70
2023/10/13 08:31:54;;;;;;;6.20;4.50;;;23.10;99.90;;;;;;5053909;28;20197;-71
2023/10/13 08:34:24;;;;;;;6.95;5.22;;;23.10;99.90;;;;;;5053611;28;20596;-70
2023/10/13 08:36:55;;;;;;;8.65;5.32;;;23.40;99.90;;;;;;5057318;28;20202;-71
2023/10/13 08:42:11;;;;;;;7.45;5.38;;;23.60;99.90;;;;;;5054453;28;20245;-71
2023/10/13 08:44:39;;;;;;;9.45;5.53;;;23.90;99.90;;;;;;5056501;28;20220;-71
2023/10/13 08:47:16;;;;;;;10.35;5.93;;;23.80;99.90;;;;;;5054387;28;20218;-71
2023/10/13 08:49:50;;;;;;;7.90;5.20;;;23.60;99.90;;;;;;5053356;28;20279;-71
2023/10/13 08:58:03;;;;;;;9.43;5.20;;;23.70;99.90;;;;;;5059302;28;20194;-70
2023/10/13 09:00:55;;;;;;;9.07;5.70;;;23.90;99.90;;;;;;5049607;28;20276;-71
2023/10/13 09:03:40;;;;;;;8.45;5.68;;;24.00;99.90;;;;;;5052480;28;20286;-71
2023/10/13 09:06:14;;;;;;;9.25;6.25;;;24.20;99.90;;;;;;5051314;28;20282;-70
2023/10/13 09:09:04;;;;;;;9.18;5.63;;;24.70;99.90;;;;;;5052039;28;20186;-71
2023/10/13 09:11:48;;;;;;;8.52;5.50;;;24.80;99.90;;;;;;5050711;28;20233;-72
2023/10/13 09:14:33;;;;;;;5.75;5.05;;;25.00;99.90;;;;;;5048314;28;20225;-71
2023/10/13 09:17:09;;;;;;;9.27;5.32;;;25.10;99.90;;;;;;5051894;28;20214;-72
2023/10/13 09:19:48;;;;;;;8.18;5.28;;;25.00;99.90;;;;;;5052404;28;20348;-71
2023/10/13 09:22:26;;;;;;;7.78;5.40;;;25.00;99.90;;;;;;5055059;28;20300;-70
2023/10/13 09:24:58;;;;;;;6.53;5.63;;;25.20;99.90;;;;;;5047957;28;20198;-71
2023/10/13 09:27:27;;;;;;;7.32;5.13;;;25.20;99.90;;;;;;5052269;28;20740;-71
2023/10/13 09:30:01;;;;;;;7.82;5.95;;;25.30;99.90;;;;;;5052453;28;20228;-71
2023/10/13 09:32:28;;;;;;;8.13;5.35;;;25.20;99.90;;;;;;5055423;28;20194;-71
2023/10/13 09:35:02;;;;;;;9.18;6.25;;;25.10;99.90;;;;;;5054145;28;21210;-71
2023/10/13 09:37:28;;;;;;;7.38;5.60;;;24.80;99.90;;;;;;5052225;28;20206;-71
2023/10/13 09:40:04;;;;;;;9.43;5.72;;;24.80;99.90;;;;;;5054608;28;20232;-71
2023/10/13 09:42:34;;;;;;;8.32;5.60;;;24.90;99.90;;;;;;5050857;28;20272;-71
2023/10/13 09:45:04;;;;;;;9.50;5.88;;;25.30;99.90;;;;;;5050304;28;20244;-71
2023/10/13 09:47:36;;;;;;;8.50;5.88;;;25.40;99.90;;;;;;5053128;28;20211;-71
2023/10/13 09:50:05;;;;;;;7.40;5.18;;;25.50;99.90;;;;;;5050688;28;20219;-71
2023/10/13 09:52:33;;;;;;;10.45;5.47;;;25.40;99.90;;;;;;5053589;28;20723;-68
2023/10/13 09:55:19;;;;;;;10.85;6.05;;;25.70;99.90;;;;;;5065136;28;20206;-69
2023/10/13 09:57:57;;;;;;;8.02;5.50;;;25.70;99.90;;;;;;5076001;28;20687;-69
2023/10/13 10:03:29;;;;;;;8.13;5.75;;;25.50;99.90;;;;;;5053483;28;20210;-69
2023/10/13 10:06:04;;;;;;;9.60;5.55;;;25.80;99.90;;;;;;5053004;28;20205;-68
2023/10/13 10:08:34;;;;;;;12.25;5.88;;;26.10;99.90;;;;;;5051657;28;20199;-69
2023/10/13 10:11:20;;;;;;;6.72;5.38;;;26.10;99.90;;;;;;5056263;28;20218;-69
2023/10/13 10:13:57;;;;;;;6.72;5.97;;;26.30;99.90;;;;;;5053383;28;20290;-69
2023/10/13 10:16:37;;;;;;;7.22;6.10;;;26.20;99.90;;;;;;5054230;28;20297;-69
2023/10/13 10:19:07;;;;;;;8.50;5.43;;;26.20;99.90;;;;;;5048392;28;20452;-69
2023/10/13 10:21:35;;;;;;;8.18;5.97;;;26.10;99.90;;;;;;5049942;28;20309;-69
2023/10/13 10:24:13;;;;;;;8.05;6.18;;;26.20;99.90;;;;;;5051321;28;20269;-69
2023/10/13 10:26:52;;;;;;;10.07;6.30;;;26.40;99.90;;;;;;5050831;28;20198;-69
2023/10/13 10:29:23;;;;;;;10.20;5.95;;;26.30;99.90;;;;;;5058568;28;20265;-70
2023/10/13 10:31:51;;;;;;;8.68;5.72;;;26.00;99.90;;;;;;5074375;28;20198;-70
2023/10/13 10:34:19;;;;;;;8.00;6.20;;;25.80;99.90;;;;;;5076526;28;20200;-72
2023/10/13 10:36:54;;;;;;;7.32;5.95;;;25.50;99.90;;;;;;5061292;28;20230;-70
2023/10/13 10:39:33;;;;;;;8.80;6.32;;;25.50;99.90;;;;;;5046941;28;20210;-69
2023/10/13 10:42:15;;;;;;;8.23;6.47;;;25.60;99.90;;;;;;5050598;28;20268;-69
2023/10/13 10:44:44;;;;;;;7.40;6.13;;;25.30;99.90;;;;;;5050164;28;20229;-69
2023/10/13 10:47:11;;;;;;;7.32;5.90;;;25.50;99.90;;;;;;5049179;28;20209;-68
2023/10/13 10:49:40;;;;;;;6.93;5.97;;;25.40;99.90;;;;;;5054158;28;21050;-69
2023/10/13 10:52:18;;;;;;;13.60;6.95;;;25.40;99.90;;;;;;5050128;28;20202;-69
2023/10/13 10:54:51;;;;;;;7.28;6.03;;;25.40;99.90;;;;;;5049345;28;20207;-70
2023/10/13 10:57:18;;;;;;;8.90;6.35;;;25.10;99.90;;;;;;5049078;28;20206;-70
2023/10/13 10:59:48;;;;;;;8.00;5.95;;;25.20;99.90;;;;;;5049932;28;20219;-72
2023/10/13 11:02:25;;;;;;;7.95;6.32;;;25.30;99.90;;;;;;5046487;28;20203;-74
2023/10/13 11:04:53;;;;;;;7.55;5.38;;;25.50;99.90;;;;;;5049738;28;20217;-72
2023/10/13 11:07:24;;;;;;;9.65;6.35;;;25.70;99.90;;;;;;5051562;28;20206;-72
2023/10/13 11:09:56;;;;;;;9.43;6.35;;;25.50;99.90;;;;;;5049771;28;20230;-71
2023/10/13 11:12:26;;;;;;;10.23;5.88;;;25.70;99.90;;;;;;5051476;28;20194;-69
2023/10/13 11:15:12;;;;;;;11.30;6.25;;;25.50;99.90;;;;;;5050550;28;20248;-69
2023/10/13 11:17:43;;;;;;;11.18;6.35;;;25.40;99.90;;;;;;5050178;28;20194;-71
2023/10/13 11:20:16;;;;;;;8.23;5.60;;;25.50;99.90;;;;;;5052846;28;20219;-70
2023/10/13 11:22:46;;;;;;;8.30;5.65;;;25.70;99.90;;;;;;5053093;28;20229;-70
2023/10/13 11:25:23;;;;;;;9.40;5.78;;;26.00;99.90;;;;;;5053547;28;20312;-70
2023/10/13 11:27:58;;;;;;;10.02;6.38;;;26.00;99.90;;;;;;5052550;28;20202;-70
2023/10/13 11:30:29;;;;;;;10.13;6.60;;;25.90;99.90;;;;;;5051295;28;20221;-69
2023/10/13 11:33:05;;;;;;;8.23;6.07;;;25.70;99.90;;;;;;5056919;28;20289;-70
2023/10/13 11:35:48;;;;;;;9.40;7.25;;;25.50;99.90;;;;;;5052617;28;20226;-69
2023/10/13 11:38:25;;;;;;;9.88;6.28;;;25.60;99.90;;;;;;5053002;28;20292;-69
2023/10/13 11:43:52;;;;;;;14.20;7.75;;;25.60;99.90;;;;;;5043717;28;20210;-70
2023/10/13 11:49:13;;;;;;;14.98;8.27;;;25.20;99.90;;;;;;5008812;28;20224;-70
2023/10/13 11:51:44;;;;;;;13.32;7.38;;;25.00;99.90;;;;;;5049500;28;20927;-70
2023/10/13 11:54:11;;;;;;;11.88;7.43;;;25.00;99.90;;;;;;5059469;28;20771;-70
2023/10/13 11:56:38;;;;;;;15.65;10.23;;;25.00;99.90;;;;;;5067901;28;20194;-72
2023/10/13 11:59:05;;;;;;;10.60;8.90;;;25.00;99.90;;;;;;5083167;28;20195;-71
2023/10/13 12:07:14;;;;;;;15.57;11.65;;;25.10;99.90;;;;;;5052696;28;20201;-71
2023/10/13 12:09:52;;;;;;;13.77;11.50;;;24.90;99.90;;;;;;5059426;28;20268;-72
2023/10/13 12:12:19;;;;;;;15.38;10.75;;;24.70;99.90;;;;;;5048949;28;20731;-71
2023/10/13 12:14:55;;;;;;;18.40;9.70;;;24.70;99.90;;;;;;5056685;28;20195;-71
2023/10/13 12:17:28;;;;;;;22.83;11.80;;;24.90;99.90;;;;;;5053859;28;20220;-71
2023/10/13 12:19:56;;;;;;;18.85;11.93;;;24.90;99.90;;;;;;5054417;28;20214;-71
2023/10/13 12:22:28;;;;;;;18.00;11.57;;;24.80;99.90;;;;;;5052974;28;20270;-75
2023/10/13 12:24:55;;;;;;;18.02;12.85;;;24.60;99.90;;;;;;5050725;28;20202;-70
2023/10/13 12:27:26;;;;;;;16.75;10.98;;;24.60;99.90;;;;;;5055642;28;20292;-71
2023/10/13 12:29:56;;;;;;;20.30;14.32;;;24.50;99.90;;;;;;5051337;28;20223;-70
2023/10/13 12:32:25;;;;;;;20.27;13.23;;;24.40;99.90;;;;;;5051258;28;20198;-73
2023/10/13 12:35:17;;;;;;;22.20;13.98;;;24.00;99.90;;;;;;5056713;28;20205;-71
2023/10/13 12:38:04;;;;;;;20.27;13.65;;;23.90;99.90;;;;;;5051678;28;20218;-71
2023/10/13 12:49:15;;;;;;;22.17;14.27;;;23.20;99.90;;;;;;5050798;28;20672;-71
2023/10/13 12:51:50;;;;;;;18.42;13.48;;;23.10;99.90;;;;;;5051513;28;20230;-72
2023/10/13 12:54:23;;;;;;;17.77;12.90;;;23.10;99.90;;;;;;5052509;28;20206;-72
2023/10/13 12:56:56;;;;;;;18.45;13.85;;;23.20;99.90;;;;;;5059809;28;20198;-71
2023/10/13 12:59:26;;;;;;;22.75;14.07;;;23.20;99.90;;;;;;5057800;28;20812;-72
2023/10/13 13:01:53;;;;;;;18.83;12.82;;;23.20;99.90;;;;;;5052245;28;20908;-72
2023/10/13 13:04:22;;;;;;;16.88;13.02;;;23.30;99.90;;;;;;5053783;28;20218;-76
2023/10/13 13:06:49;;;;;;;14.43;10.60;;;23.10;99.90;;;;;;5056066;28;20268;-71
2023/10/13 13:09:25;;;;;;;16.42;11.35;;;23.20;99.90;;;;;;5054137;28;20284;-71
2023/10/13 13:11:56;;;;;;;20.15;14.30;;;23.40;99.90;;;;;;5051695;28;20200;-72
2023/10/13 13:14:28;;;;;;;21.55;13.18;;;23.50;99.90;;;;;;5047758;28;20285;-72
2023/10/13 13:17:01;;;;;;;16.60;12.18;;;23.60;99.90;;;;;;5051391;28;20214;-72
2023/10/13 13:19:29;;;;;;;14.52;11.10;;;23.70;99.90;;;;;;5050196;28;20206;-72
2023/10/13 13:21:56;;;;;;;14.90;10.95;;;23.90;99.90;;;;;;5050732;28;20215;-71
2023/10/13 13:24:23;;;;;;;21.85;11.15;;;24.10;99.90;;;;;;5051527;28;20940;-71
2023/10/13 13:26:54;;;;;;;15.32;10.93;;;24.10;99.90;;;;;;5052652;28;20715;-72
2023/10/13 13:29:21;;;;;;;12.85;9.73;;;24.30;99.90;;;;;;5050861;28;20347;-72
2023/10/13 13:31:48;;;;;;;18.77;11.80;;;24.40;99.90;;;;;;5051087;28;20206;-76
2023/10/13 13:34:15;;;;;;;16.02;10.23;;;24.50;99.90;;;;;;5049386;28;20755;-74
2023/10/13 13:36:49;;;;;;;17.58;12.20;;;24.60;99.90;;;;;;5042609;28;20199;-73
2023/10/13 13:39:18;;;;;;;20.52;10.65;;;24.60;99.90;;;;;;5051023;28;20197;-72
2023/10/13 13:41:45;;;;;;;13.77;9.73;;;24.50;99.90;;;;;;5048802;28;20586;-74
2023/10/13 13:44:15;;;;;;;15.80;9.13;;;24.60;99.90;;;;;;5048989;28;20276;-72
2023/10/13 13:46:42;;;;;;;14.63;10.68;;;24.80;99.90;;;;;;5052255;28;20206;-72
2023/10/13 13:49:18;;;;;;;15.23;10.70;;;24.90;99.90;;;;;;5048909;28;20238;-73
2023/10/13 13:51:51;;;;;;;13.57;9.45;;;24.80;99.90;;;;;;5048092;28;20226;-73
2023/10/13 13:54:20;;;;;;;14.70;10.43;;;24.60;99.90;;;;;;5045761;28;20198;-72
2023/10/13 13:56:47;;;;;;;17.38;10.82;;;24.50;99.90;;;;;;5046748;28;20290;-71
2023/10/13 13:59:19;;;;;;;16.40;10.80;;;24.50;99.90;;;;;;5071996;28;20182;-73
2023/10/13 14:01:47;;;;;;;15.35;11.20;;;24.50;99.90;;;;;;5057965;28;21051;-71
2023/10/13 14:04:17;;;;;;;14.95;9.70;;;24.30;99.90;;;;;;5051603;28;20351;-71
2023/10/13 14:06:45;;;;;;;12.80;9.95;;;24.40;99.90;;;;;;5049051;28;20252;-71
2023/10/13 14:09:32;;;;;;;12.63;9.90;;;24.40;99.90;;;;;;5053399;28;20289;-72
2023/10/13 14:14:49;;;;;;;17.58;11.13;;;24.50;99.90;;;;;;5067134;28;20192;-73
2023/10/13 14:17:16;;;;;;;18.70;11.02;;;24.40;99.90;;;;;;5071465;28;20202;-77
2023/10/13 14:19:45;;;;;;;14.90;10.00;;;24.20;99.90;;;;;;5066654;28;20227;-74
2023/10/13 14:22:13;;;;;;;14.15;10.27;;;24.00;99.90;;;;;;5064283;28;20209;-72
2023/10/13 14:24:51;;;;;;;15.30;10.68;;;23.90;99.90;;;;;;5067383;28;20224;-74
2023/10/13 14:27:19;;;;;;;22.17;12.95;;;23.90;99.90;;;;;;5069074;28;20204;-73
2023/10/13 14:29:47;;;;;;;18.80;11.82;;;23.80;99.90;;;;;;5061639;28;20226;-74
2023/10/13 14:32:15;;;;;;;20.35;13.23;;;23.80;99.90;;;;;;5066973;28;20206;-73
2023/10/13 14:34:43;;;;;;;17.15;11.13;;;23.60;99.90;;;;;;5065884;28;20198;-73
2023/10/13 14:37:12;;;;;;;21.20;12.00;;;23.50;99.90;;;;;;5060764;28;20885;-73
2023/10/13 14:39:41;;;;;;;16.35;11.13;;;23.50;99.90;;;;;;5058099;28;20194;-72
2023/10/13 14:42:07;;;;;;;18.10;12.82;;;23.50;99.90;;;;;;5062265;28;20667;-72
2023/10/13 14:44:36;;;;;;;17.83;11.75;;;23.40;99.90;;;;;;5066003;28;20221;-72
2023/10/13 14:47:05;;;;;;;15.63;10.27;;;23.30;99.90;;;;;;5067995;28;20287;-73
2023/10/13 14:49:36;;;;;;;16.13;11.25;;;23.30;99.90;;;;;;5065398;28;20281;-71
2023/10/13 14:52:03;;;;;;;20.17;12.40;;;23.10;99.90;;;;;;5070141;28;20855;-72
2023/10/13 14:54:36;;;;;;;17.50;12.07;;;22.90;99.90;;;;;;5067705;28;20190;-72
2023/10/13 14:57:04;;;;;;;13.75;11.15;;;22.80;99.90;;;;;;5069728;28;20206;-74
2023/10/13 14:59:38;;;;;;;16.48;11.77;;;22.60;99.90;;;;;;5071076;28;20708;-72
2023/10/13 15:02:05;;;;;;;14.55;10.40;;;22.50;99.90;;;;;;5055621;28;20267;-72
2023/10/13 15:04:33;;;;;;;14.00;11.32;;;22.40;99.90;;;;;;5055577;28;20737;-72
2023/10/13 15:07:02;;;;;;;13.60;10.20;;;22.30;99.90;;;;;;5057732;28;20931;-72